sensor_id;sensor_type;location;lat;lon;timestamp;pressure;altitude;pressure_sealevel;temperature;humidity
37848;BME280;23688;33.130;-117.188;2022-12-17T00:02:03;99684.56;;;17.20;47.81
37848;BME280;23688;33.130;-117.188;2022-12-17T00:04:47;99682.69;;;17.13;47.94
37848;BME280;23688;33.130;-117.188;2022-12-17T00:07:32;99675.28;;;16.92;48.54
37848;BME280;23688;33.130;-117.188;2022-12-17T00:10:18;99678.97;;;17.01;47.65
37848;BME280;23688;33.130;-117.188;2022-12-17T00:13:02;99684.59;;;16.77;47.07
37848;BME280;23688;33.130;-117.188;2022-12-17T00:15:51;99685.81;;;16.51;47.50
37848;BME280;23688;33.130;-117.188;2022-12-17T00:18:35;99680.66;;;16.54;46.37
37848;BME280;23688;33.130;-117.188;2022-12-17T00:21:20;99673.84;;;16.19;45.51
37848;BME280;23688;33.130;-117.188;2022-12-17T00:24:05;99668.03;;;16.34;46.25
37848;BME280;23688;33.130;-117.188;2022-12-17T00:26:49;99660.22;;;16.37;46.66
37848;BME280;23688;33.130;-117.188;2022-12-17T00:29:34;99670.75;;;16.40;47.97
37848;BME280;23688;33.130;-117.188;2022-12-17T00:32:18;99672.31;;;16.31;48.91
37848;BME280;23688;33.130;-117.188;2022-12-17T00:35:03;99671.22;;;16.21;49.60
37848;BME280;23688;33.130;-117.188;2022-12-17T00:37:48;99661.38;;;16.09;49.06
37848;BME280;23688;33.130;-117.188;2022-12-17T00:40:33;99663.88;;;16.03;49.23
37848;BME280;23688;33.130;-117.188;2022-12-17T00:43:17;99673.34;;;15.98;50.59
37848;BME280;23688;33.130;-117.188;2022-12-17T00:46:02;99672.16;;;15.83;50.74
37848;BME280;23688;33.130;-117.188;2022-12-17T00:48:47;99676.22;;;15.71;50.54
37848;BME280;23688;33.130;-117.188;2022-12-17T00:51:31;99677.56;;;15.55;51.05
37848;BME280;23688;33.130;-117.188;2022-12-17T00:54:16;99666.53;;;15.32;52.82
37848;BME280;23688;33.130;-117.188;2022-12-17T00:57:00;99677.50;;;15.17;52.65
37848;BME280;23688;33.130;-117.188;2022-12-17T00:59:45;99677.88;;;14.97;52.56
37848;BME280;23688;33.130;-117.188;2022-12-17T01:02:29;99685.13;;;14.76;51.53
37848;BME280;23688;33.130;-117.188;2022-12-17T01:05:14;99681.91;;;14.54;51.23
37848;BME280;23688;33.130;-117.188;2022-12-17T01:08:06;99695.66;;;14.49;52.21
37848;BME280;23688;33.130;-117.188;2022-12-17T01:10:51;99691.78;;;14.36;53.53
37848;BME280;23688;33.130;-117.188;2022-12-17T01:13:36;99696.63;;;14.22;52.11
37848;BME280;23688;33.130;-117.188;2022-12-17T01:16:20;99691.84;;;14.09;52.56
37848;BME280;23688;33.130;-117.188;2022-12-17T01:19:05;99701.75;;;13.90;53.41
37848;BME280;23688;33.130;-117.188;2022-12-17T01:21:49;99707.06;;;13.66;54.01
37848;BME280;23688;33.130;-117.188;2022-12-17T01:24:34;99713.63;;;13.55;52.41
37848;BME280;23688;33.130;-117.188;2022-12-17T01:27:18;99705.63;;;13.49;52.73
37848;BME280;23688;33.130;-117.188;2022-12-17T01:30:03;99710.84;;;13.49;51.80
37848;BME280;23688;33.130;-117.188;2022-12-17T01:32:48;99698.28;;;13.37;53.01
37848;BME280;23688;33.130;-117.188;2022-12-17T01:35:32;99705.94;;;13.33;51.40
37848;BME280;23688;33.130;-117.188;2022-12-17T01:38:18;99717.09;;;13.28;51.41
37848;BME280;23688;33.130;-117.188;2022-12-17T01:41:04;99721.16;;;13.20;52.77
37848;BME280;23688;33.130;-117.188;2022-12-17T01:43:49;99718.06;;;13.06;52.71
37848;BME280;23688;33.130;-117.188;2022-12-17T01:46:40;99718.72;;;13.01;52.40
37848;BME280;23688;33.130;-117.188;2022-12-17T01:49:27;99728.91;;;12.93;53.92
37848;BME280;23688;33.130;-117.188;2022-12-17T01:52:14;99723.97;;;12.77;55.25
37848;BME280;23688;33.130;-117.188;2022-12-17T01:55:00;99717.41;;;12.64;53.76
37848;BME280;23688;33.130;-117.188;2022-12-17T01:57:45;99706.97;;;12.40;54.61
37848;BME280;23688;33.130;-117.188;2022-12-17T02:00:30;99724.94;;;12.32;55.49
37848;BME280;23688;33.130;-117.188;2022-12-17T02:03:16;99721.84;;;12.20;54.70
37848;BME280;23688;33.130;-117.188;2022-12-17T02:06:10;99728.59;;;12.15;54.44
37848;BME280;23688;33.130;-117.188;2022-12-17T02:09:30;99730.06;;;12.08;56.14
37848;BME280;23688;33.130;-117.188;2022-12-17T02:12:46;99740.06;;;11.97;56.20
37848;BME280;23688;33.130;-117.188;2022-12-17T02:18:36;99748.94;;;11.61;54.55
37848;BME280;23688;33.130;-117.188;2022-12-17T02:21:24;99748.25;;;11.44;53.29
37848;BME280;23688;33.130;-117.188;2022-12-17T02:27:12;99732.66;;;11.23;52.51
37848;BME280;23688;33.130;-117.188;2022-12-17T02:30:04;99750.19;;;11.28;51.35
37848;BME280;23688;33.130;-117.188;2022-12-17T02:32:50;99760.91;;;11.15;51.62
37848;BME280;23688;33.130;-117.188;2022-12-17T02:35:46;99765.34;;;11.18;51.98
37848;BME280;23688;33.130;-117.188;2022-12-17T02:38:33;99736.78;;;10.98;52.56
37848;BME280;23688;33.130;-117.188;2022-12-17T02:41:27;99758.09;;;11.10;52.50
37848;BME280;23688;33.130;-117.188;2022-12-17T02:44:14;99754.00;;;10.96;50.95
37848;BME280;23688;33.130;-117.188;2022-12-17T02:47:03;99765.50;;;11.01;50.05
37848;BME280;23688;33.130;-117.188;2022-12-17T02:49:49;99755.06;;;10.80;49.99
37848;BME280;23688;33.130;-117.188;2022-12-17T02:52:38;99759.50;;;10.83;51.47
37848;BME280;23688;33.130;-117.188;2022-12-17T02:55:23;99761.69;;;10.74;52.52
37848;BME280;23688;33.130;-117.188;2022-12-17T02:58:08;99762.91;;;10.62;52.35
37848;BME280;23688;33.130;-117.188;2022-12-17T03:00:53;99773.94;;;10.58;52.65
37848;BME280;23688;33.130;-117.188;2022-12-17T03:03:37;99775.53;;;10.55;53.33
37848;BME280;23688;33.130;-117.188;2022-12-17T03:06:23;99768.41;;;10.50;54.14
37848;BME280;23688;33.130;-117.188;2022-12-17T03:09:07;99769.59;;;10.57;57.35
37848;BME280;23688;33.130;-117.188;2022-12-17T03:11:51;99785.03;;;10.54;56.68
37848;BME280;23688;33.130;-117.188;2022-12-17T03:14:36;99774.88;;;10.41;56.88
37848;BME280;23688;33.130;-117.188;2022-12-17T03:17:21;99771.72;;;10.28;57.16
37848;BME280;23688;33.130;-117.188;2022-12-17T03:20:06;99765.25;;;10.20;60.35
37848;BME280;23688;33.130;-117.188;2022-12-17T03:22:51;99780.75;;;10.19;58.35
37848;BME280;23688;33.130;-117.188;2022-12-17T03:25:37;99777.13;;;10.15;60.53
37848;BME280;23688;33.130;-117.188;2022-12-17T03:28:21;99775.66;;;10.20;64.55
37848;BME280;23688;33.130;-117.188;2022-12-17T03:31:06;99777.50;;;10.23;64.92
37848;BME280;23688;33.130;-117.188;2022-12-17T03:33:50;99787.38;;;10.30;65.77
37848;BME280;23688;33.130;-117.188;2022-12-17T03:36:35;99782.28;;;10.32;64.20
37848;BME280;23688;33.130;-117.188;2022-12-17T03:39:19;99792.91;;;10.38;65.27
37848;BME280;23688;33.130;-117.188;2022-12-17T03:42:04;99775.28;;;10.31;65.42
37848;BME280;23688;33.130;-117.188;2022-12-17T03:44:51;99794.03;;;10.43;66.31
37848;BME280;23688;33.130;-117.188;2022-12-17T03:47:40;99795.00;;;10.45;65.97
37848;BME280;23688;33.130;-117.188;2022-12-17T03:50:25;99798.41;;;10.44;65.97
37848;BME280;23688;33.130;-117.188;2022-12-17T03:53:09;99802.91;;;10.48;65.79
37848;BME280;23688;33.130;-117.188;2022-12-17T03:55:54;99802.03;;;10.47;65.77
37848;BME280;23688;33.130;-117.188;2022-12-17T03:58:39;99804.63;;;10.47;66.37
37848;BME280;23688;33.130;-117.188;2022-12-17T04:01:24;99811.91;;;10.37;63.74
37848;BME280;23688;33.130;-117.188;2022-12-17T04:04:08;99793.22;;;10.08;62.88
37848;BME280;23688;33.130;-117.188;2022-12-17T04:06:53;99806.28;;;10.10;64.21
37848;BME280;23688;33.130;-117.188;2022-12-17T04:09:37;99810.78;;;9.96;64.04
37848;BME280;23688;33.130;-117.188;2022-12-17T04:12:22;99812.91;;;9.86;63.86
37848;BME280;23688;33.130;-117.188;2022-12-17T04:15:07;99807.00;;;9.71;64.80
37848;BME280;23688;33.130;-117.188;2022-12-17T04:17:52;99810.56;;;9.73;65.60
37848;BME280;23688;33.130;-117.188;2022-12-17T04:20:36;99817.81;;;9.80;65.61
37848;BME280;23688;33.130;-117.188;2022-12-17T04:23:21;99812.78;;;9.83;64.88
37848;BME280;23688;33.130;-117.188;2022-12-17T04:26:05;99805.66;;;9.79;64.21
37848;BME280;23688;33.130;-117.188;2022-12-17T04:28:49;99815.00;;;9.76;61.90
37848;BME280;23688;33.130;-117.188;2022-12-17T04:31:34;99830.19;;;9.68;60.21
37848;BME280;23688;33.130;-117.188;2022-12-17T04:34:18;99826.56;;;9.48;60.35
37848;BME280;23688;33.130;-117.188;2022-12-17T04:37:03;99829.88;;;9.46;61.29
37848;BME280;23688;33.130;-117.188;2022-12-17T04:39:47;99832.13;;;9.56;63.04
37848;BME280;23688;33.130;-117.188;2022-12-17T04:42:32;99837.72;;;9.63;64.01
37848;BME280;23688;33.130;-117.188;2022-12-17T04:45:16;99825.56;;;9.62;64.42
37848;BME280;23688;33.130;-117.188;2022-12-17T04:48:05;99841.44;;;9.69;63.20
37848;BME280;23688;33.130;-117.188;2022-12-17T04:50:50;99832.06;;;9.54;61.88
37848;BME280;23688;33.130;-117.188;2022-12-17T04:53:34;99843.97;;;9.51;61.35
37848;BME280;23688;33.130;-117.188;2022-12-17T04:56:19;99838.16;;;9.38;60.82
37848;BME280;23688;33.130;-117.188;2022-12-17T04:59:04;99841.72;;;9.40;61.39
37848;BME280;23688;33.130;-117.188;2022-12-17T05:01:50;99840.94;;;9.41;63.00
37848;BME280;23688;33.130;-117.188;2022-12-17T05:04:35;99852.97;;;9.41;64.17
37848;BME280;23688;33.130;-117.188;2022-12-17T05:07:20;99847.47;;;9.35;63.76
37848;BME280;23688;33.130;-117.188;2022-12-17T05:10:05;99857.22;;;9.39;64.65
37848;BME280;23688;33.130;-117.188;2022-12-17T05:12:59;99853.16;;;9.44;64.26
37848;BME280;23688;33.130;-117.188;2022-12-17T05:15:45;99848.53;;;9.38;64.16
37848;BME280;23688;33.130;-117.188;2022-12-17T05:18:30;99858.88;;;9.38;63.91
37848;BME280;23688;33.130;-117.188;2022-12-17T05:21:15;99864.81;;;9.36;63.00
37848;BME280;23688;33.130;-117.188;2022-12-17T05:23:59;99860.69;;;9.23;62.71
37848;BME280;23688;33.130;-117.188;2022-12-17T05:26:44;99856.88;;;9.16;62.88
37848;BME280;23688;33.130;-117.188;2022-12-17T05:29:29;99859.22;;;9.12;62.61
37848;BME280;23688;33.130;-117.188;2022-12-17T05:32:13;99855.97;;;8.99;61.68
37848;BME280;23688;33.130;-117.188;2022-12-17T05:34:57;99863.44;;;8.93;61.74
37848;BME280;23688;33.130;-117.188;2022-12-17T05:37:42;99858.66;;;8.85;61.73
37848;BME280;23688;33.130;-117.188;2022-12-17T05:40:26;99866.16;;;8.80;61.95
37848;BME280;23688;33.130;-117.188;2022-12-17T05:43:11;99860.44;;;8.86;60.84
37848;BME280;23688;33.130;-117.188;2022-12-17T05:45:57;99864.91;;;8.88;58.84
37848;BME280;23688;33.130;-117.188;2022-12-17T05:48:41;99851.78;;;8.85;56.99
37848;BME280;23688;33.130;-117.188;2022-12-17T05:51:26;99843.06;;;8.83;56.51
37848;BME280;23688;33.130;-117.188;2022-12-17T05:54:11;99853.72;;;8.89;55.50
37848;BME280;23688;33.130;-117.188;2022-12-17T05:57:04;99850.97;;;8.86;54.11
37848;BME280;23688;33.130;-117.188;2022-12-17T05:59:48;99860.38;;;9.00;53.23
37848;BME280;23688;33.130;-117.188;2022-12-17T06:02:34;99866.34;;;8.99;54.12
37848;BME280;23688;33.130;-117.188;2022-12-17T06:05:18;99874.44;;;8.89;55.24
37848;BME280;23688;33.130;-117.188;2022-12-17T06:08:08;99861.81;;;8.79;54.94
37848;BME280;23688;33.130;-117.188;2022-12-17T06:10:53;99856.94;;;8.69;54.53
37848;BME280;23688;33.130;-117.188;2022-12-17T06:13:41;99857.47;;;8.63;54.29
37848;BME280;23688;33.130;-117.188;2022-12-17T06:16:26;99848.41;;;8.55;54.88
37848;BME280;23688;33.130;-117.188;2022-12-17T06:19:10;99848.97;;;8.49;54.75
37848;BME280;23688;33.130;-117.188;2022-12-17T06:21:54;99856.75;;;8.49;53.42
37848;BME280;23688;33.130;-117.188;2022-12-17T06:24:39;99851.63;;;8.51;53.46
37848;BME280;23688;33.130;-117.188;2022-12-17T06:27:24;99844.69;;;8.50;51.68
37848;BME280;23688;33.130;-117.188;2022-12-17T06:30:11;99844.22;;;8.57;51.35
37848;BME280;23688;33.130;-117.188;2022-12-17T06:33:04;99845.34;;;8.62;51.00
37848;BME280;23688;33.130;-117.188;2022-12-17T06:35:52;99836.97;;;8.66;49.37
37848;BME280;23688;33.130;-117.188;2022-12-17T06:38:36;99830.22;;;8.70;48.40
37848;BME280;23688;33.130;-117.188;2022-12-17T06:41:28;99827.16;;;8.77;47.56
37848;BME280;23688;33.130;-117.188;2022-12-17T06:44:13;99827.31;;;8.80;46.75
37848;BME280;23688;33.130;-117.188;2022-12-17T06:46:58;99825.97;;;8.87;46.92
37848;BME280;23688;33.130;-117.188;2022-12-17T06:49:43;99823.63;;;8.91;45.53
37848;BME280;23688;33.130;-117.188;2022-12-17T06:52:27;99823.03;;;8.97;45.62
37848;BME280;23688;33.130;-117.188;2022-12-17T06:55:12;99830.19;;;9.01;46.25
37848;BME280;23688;33.130;-117.188;2022-12-17T06:57:58;99808.91;;;8.90;47.87
37848;BME280;23688;33.130;-117.188;2022-12-17T07:00:44;99825.19;;;8.88;47.99
37848;BME280;23688;33.130;-117.188;2022-12-17T07:03:29;99828.16;;;8.79;49.32
37848;BME280;23688;33.130;-117.188;2022-12-17T07:06:14;99812.59;;;8.63;49.55
37848;BME280;23688;33.130;-117.188;2022-12-17T07:08:58;99808.63;;;8.53;48.64
37848;BME280;23688;33.130;-117.188;2022-12-17T07:11:43;99809.53;;;8.53;48.59
37848;BME280;23688;33.130;-117.188;2022-12-17T07:14:27;99794.00;;;8.53;47.79
37848;BME280;23688;33.130;-117.188;2022-12-17T07:17:12;99796.09;;;8.61;47.10
37848;BME280;23688;33.130;-117.188;2022-12-17T07:19:56;99813.19;;;8.73;46.79
37848;BME280;23688;33.130;-117.188;2022-12-17T07:22:40;99800.88;;;8.69;47.11
37848;BME280;23688;33.130;-117.188;2022-12-17T07:25:25;99809.53;;;8.70;46.97
37848;BME280;23688;33.130;-117.188;2022-12-17T07:28:09;99809.84;;;8.60;49.61
37848;BME280;23688;33.130;-117.188;2022-12-17T07:30:55;99799.09;;;8.52;50.22
37848;BME280;23688;33.130;-117.188;2022-12-17T07:33:40;99803.59;;;8.40;50.47
37848;BME280;23688;33.130;-117.188;2022-12-17T07:36:25;99789.22;;;8.30;50.21
37848;BME280;23688;33.130;-117.188;2022-12-17T07:39:10;99785.66;;;8.28;49.35
37848;BME280;23688;33.130;-117.188;2022-12-17T07:41:55;99788.25;;;8.28;49.32
37848;BME280;23688;33.130;-117.188;2022-12-17T07:44:39;99785.00;;;8.15;50.44
37848;BME280;23688;33.130;-117.188;2022-12-17T07:47:24;99780.41;;;7.95;49.79
37848;BME280;23688;33.130;-117.188;2022-12-17T07:50:09;99790.06;;;7.83;51.78
37848;BME280;23688;33.130;-117.188;2022-12-17T07:53:02;99784.81;;;7.66;52.05
37848;BME280;23688;33.130;-117.188;2022-12-17T07:55:47;99779.94;;;7.56;52.82
37848;BME280;23688;33.130;-117.188;2022-12-17T07:58:32;99788.63;;;7.43;52.77
37848;BME280;23688;33.130;-117.188;2022-12-17T08:01:17;99787.41;;;7.37;53.54
37848;BME280;23688;33.130;-117.188;2022-12-17T08:04:01;99781.88;;;7.31;53.48
37848;BME280;23688;33.130;-117.188;2022-12-17T08:06:46;99775.66;;;7.27;54.50
37848;BME280;23688;33.130;-117.188;2022-12-17T08:09:31;99764.06;;;7.20;54.75
37848;BME280;23688;33.130;-117.188;2022-12-17T08:12:16;99771.44;;;7.14;54.33
37848;BME280;23688;33.130;-117.188;2022-12-17T08:15:00;99769.66;;;7.13;53.96
37848;BME280;23688;33.130;-117.188;2022-12-17T08:17:45;99766.69;;;7.07;54.34
37848;BME280;23688;33.130;-117.188;2022-12-17T08:20:30;99777.94;;;7.07;54.83
37848;BME280;23688;33.130;-117.188;2022-12-17T08:23:14;99780.06;;;7.00;55.29
37848;BME280;23688;33.130;-117.188;2022-12-17T08:25:59;99768.97;;;6.88;55.46
37848;BME280;23688;33.130;-117.188;2022-12-17T08:28:44;99773.41;;;6.75;56.82
37848;BME280;23688;33.130;-117.188;2022-12-17T08:31:28;99772.53;;;6.75;57.51
37848;BME280;23688;33.130;-117.188;2022-12-17T08:34:13;99758.97;;;6.64;57.99
37848;BME280;23688;33.130;-117.188;2022-12-17T08:36:57;99768.41;;;6.63;57.75
37848;BME280;23688;33.130;-117.188;2022-12-17T08:39:42;99750.38;;;6.50;54.89
37848;BME280;23688;33.130;-117.188;2022-12-17T08:42:26;99760.75;;;6.65;52.83
37848;BME280;23688;33.130;-117.188;2022-12-17T08:45:11;99762.03;;;6.72;52.18
37848;BME280;23688;33.130;-117.188;2022-12-17T08:48:06;99744.84;;;6.72;51.66
37848;BME280;23688;33.130;-117.188;2022-12-17T08:50:52;99752.16;;;6.79;52.13
37848;BME280;23688;33.130;-117.188;2022-12-17T08:53:36;99750.28;;;6.77;50.61
37848;BME280;23688;33.130;-117.188;2022-12-17T08:56:20;99749.84;;;6.84;50.29
37848;BME280;23688;33.130;-117.188;2022-12-17T08:59:05;99746.84;;;6.91;47.95
37848;BME280;23688;33.130;-117.188;2022-12-17T09:01:50;99742.50;;;7.05;46.86
37848;BME280;23688;33.130;-117.188;2022-12-17T09:04:35;99733.34;;;7.10;46.05
37848;BME280;23688;33.130;-117.188;2022-12-17T09:07:20;99747.13;;;7.25;46.24
37848;BME280;23688;33.130;-117.188;2022-12-17T09:10:04;99748.19;;;7.29;46.14
37848;BME280;23688;33.130;-117.188;2022-12-17T09:12:49;99736.47;;;7.34;44.93
37848;BME280;23688;33.130;-117.188;2022-12-17T09:15:34;99738.69;;;7.43;43.70
37848;BME280;23688;33.130;-117.188;2022-12-17T09:18:20;99733.78;;;7.47;43.34
37848;BME280;23688;33.130;-117.188;2022-12-17T09:21:06;99742.31;;;7.61;44.97
37848;BME280;23688;33.130;-117.188;2022-12-17T09:23:51;99735.56;;;7.63;42.32
37848;BME280;23688;33.130;-117.188;2022-12-17T09:26:36;99731.44;;;7.67;43.04
37848;BME280;23688;33.130;-117.188;2022-12-17T09:29:20;99742.28;;;7.76;43.75
37848;BME280;23688;33.130;-117.188;2022-12-17T09:32:05;99743.34;;;7.80;42.59
37848;BME280;23688;33.130;-117.188;2022-12-17T09:34:50;99733.81;;;7.79;43.06
37848;BME280;23688;33.130;-117.188;2022-12-17T09:37:34;99741.63;;;7.80;44.57
37848;BME280;23688;33.130;-117.188;2022-12-17T09:40:23;99741.66;;;7.65;46.94
37848;BME280;23688;33.130;-117.188;2022-12-17T09:46:14;99752.66;;;7.46;46.75
37848;BME280;23688;33.130;-117.188;2022-12-17T09:49:26;99741.00;;;7.38;45.89
37848;BME280;23688;33.130;-117.188;2022-12-17T09:58:05;99730.31;;;7.47;42.80
37848;BME280;23688;33.130;-117.188;2022-12-17T10:00:57;99726.44;;;7.55;41.74
37848;BME280;23688;33.130;-117.188;2022-12-17T10:03:43;99724.25;;;7.61;42.65
37848;BME280;23688;33.130;-117.188;2022-12-17T10:06:30;99714.78;;;7.62;42.71
37848;BME280;23688;33.130;-117.188;2022-12-17T10:09:18;99729.72;;;7.67;42.67
37848;BME280;23688;33.130;-117.188;2022-12-17T10:12:18;99736.97;;;7.73;43.00
37848;BME280;23688;33.130;-117.188;2022-12-17T10:15:03;99727.50;;;7.74;42.71
37848;BME280;23688;33.130;-117.188;2022-12-17T10:17:48;99713.75;;;7.75;41.24
37848;BME280;23688;33.130;-117.188;2022-12-17T10:20:38;99729.63;;;7.81;39.80
37848;BME280;23688;33.130;-117.188;2022-12-17T10:23:27;99726.75;;;7.91;40.22
37848;BME280;23688;33.130;-117.188;2022-12-17T10:26:18;99720.69;;;7.90;41.21
37848;BME280;23688;33.130;-117.188;2022-12-17T10:29:23;99713.72;;;7.89;42.26
37848;BME280;23688;33.130;-117.188;2022-12-17T10:35:15;99724.47;;;7.81;41.88
37848;BME280;23688;33.130;-117.188;2022-12-17T10:38:10;99730.41;;;7.80;41.76
37848;BME280;23688;33.130;-117.188;2022-12-17T10:40:55;99715.03;;;7.66;42.16
37848;BME280;23688;33.130;-117.188;2022-12-17T10:43:41;99715.50;;;7.59;41.43
37848;BME280;23688;33.130;-117.188;2022-12-17T10:46:30;99728.75;;;7.65;40.66
37848;BME280;23688;33.130;-117.188;2022-12-17T10:49:18;99711.13;;;7.58;40.34
37848;BME280;23688;33.130;-117.188;2022-12-17T10:52:26;99723.50;;;7.64;41.91
37848;BME280;23688;33.130;-117.188;2022-12-17T10:55:27;99739.09;;;7.50;43.66
37848;BME280;23688;33.130;-117.188;2022-12-17T10:58:17;99710.09;;;7.25;45.03
37848;BME280;23688;33.130;-117.188;2022-12-17T11:01:03;99718.19;;;7.16;45.53
37848;BME280;23688;33.130;-117.188;2022-12-17T11:03:56;99732.19;;;7.05;47.20
37848;BME280;23688;33.130;-117.188;2022-12-17T11:06:50;99736.38;;;7.03;48.34
37848;BME280;23688;33.130;-117.188;2022-12-17T11:12:53;99722.00;;;6.78;50.33
37848;BME280;23688;33.130;-117.188;2022-12-17T11:16:16;99722.72;;;6.76;50.90
37848;BME280;23688;33.130;-117.188;2022-12-17T11:25:26;99707.09;;;6.31;50.83
37848;BME280;23688;33.130;-117.188;2022-12-17T11:28:24;99720.69;;;6.29;52.13
37848;BME280;23688;33.130;-117.188;2022-12-17T11:40:54;99695.09;;;5.90;47.82
37848;BME280;23688;33.130;-117.188;2022-12-17T11:43:58;99690.47;;;5.98;46.63
37848;BME280;23688;33.130;-117.188;2022-12-17T11:53:05;99687.06;;;6.12;45.58
37848;BME280;23688;33.130;-117.188;2022-12-17T11:56:07;99679.09;;;6.09;46.04
37848;BME280;23688;33.130;-117.188;2022-12-17T11:59:08;99680.97;;;6.12;44.58
37848;BME280;23688;33.130;-117.188;2022-12-17T12:05:05;99679.84;;;6.21;44.90
37848;BME280;23688;33.130;-117.188;2022-12-17T12:08:06;99680.78;;;6.22;45.59
37848;BME280;23688;33.130;-117.188;2022-12-17T12:11:10;99678.78;;;6.18;45.75
37848;BME280;23688;33.130;-117.188;2022-12-17T12:17:31;99678.78;;;6.18;45.15
37848;BME280;23688;33.130;-117.188;2022-12-17T12:27:15;99680.03;;;6.10;45.15
37848;BME280;23688;33.130;-117.188;2022-12-17T12:30:09;99682.19;;;6.17;45.30
37848;BME280;23688;33.130;-117.188;2022-12-17T12:33:43;99695.16;;;6.18;45.65
37848;BME280;23688;33.130;-117.188;2022-12-17T12:36:29;99685.34;;;6.13;45.90
37848;BME280;23688;33.130;-117.188;2022-12-17T12:39:53;99668.97;;;5.97;46.75
37848;BME280;23688;33.130;-117.188;2022-12-17T12:45:42;99686.44;;;5.90;47.95
37848;BME280;23688;33.130;-117.188;2022-12-17T12:48:42;99687.78;;;5.83;47.80
37848;BME280;23688;33.130;-117.188;2022-12-17T12:51:37;99684.91;;;5.78;46.44
37848;BME280;23688;33.130;-117.188;2022-12-17T12:54:27;99688.56;;;5.82;45.82
37848;BME280;23688;33.130;-117.188;2022-12-17T12:57:26;99683.59;;;5.85;45.98
37848;BME280;23688;33.130;-117.188;2022-12-17T13:03:31;99689.13;;;5.91;44.77
37848;BME280;23688;33.130;-117.188;2022-12-17T13:06:39;99690.91;;;5.92;44.69
37848;BME280;23688;33.130;-117.188;2022-12-17T13:11:46;99689.66;;;5.86;46.86
37848;BME280;23688;33.130;-117.188;2022-12-17T13:17:20;99695.22;;;5.78;47.41
37848;BME280;23688;33.130;-117.188;2022-12-17T13:24:51;99688.09;;;5.61;46.90
37848;BME280;23688;33.130;-117.188;2022-12-17T13:30:20;99699.25;;;5.75;45.17
37848;BME280;23688;33.130;-117.188;2022-12-17T13:41:16;99693.41;;;5.91;43.23
37848;BME280;23688;33.130;-117.188;2022-12-17T13:43:48;99687.00;;;5.97;42.51
37848;BME280;23688;33.130;-117.188;2022-12-17T13:46:23;99686.13;;;6.12;41.84
37848;BME280;23688;33.130;-117.188;2022-12-17T13:48:58;99679.50;;;6.15;41.27
37848;BME280;23688;33.130;-117.188;2022-12-17T13:51:28;99677.38;;;6.23;42.27
37848;BME280;23688;33.130;-117.188;2022-12-17T13:53:57;99697.28;;;6.39;41.65
37848;BME280;23688;33.130;-117.188;2022-12-17T13:56:27;99702.69;;;6.43;41.16
37848;BME280;23688;33.130;-117.188;2022-12-17T13:58:57;99704.31;;;6.41;42.03
37848;BME280;23688;33.130;-117.188;2022-12-17T14:01:24;99693.28;;;6.44;41.42
37848;BME280;23688;33.130;-117.188;2022-12-17T14:03:55;99701.19;;;6.47;42.16
37848;BME280;23688;33.130;-117.188;2022-12-17T14:06:25;99704.56;;;6.46;43.23
37848;BME280;23688;33.130;-117.188;2022-12-17T14:08:54;99704.81;;;6.36;44.44
37848;BME280;23688;33.130;-117.188;2022-12-17T14:11:22;99706.63;;;6.24;44.33
37848;BME280;23688;33.130;-117.188;2022-12-17T14:14:33;99694.78;;;6.12;44.85
37848;BME280;23688;33.130;-117.188;2022-12-17T14:17:00;99715.47;;;6.14;44.38
37848;BME280;23688;33.130;-117.188;2022-12-17T14:19:27;99711.13;;;6.13;42.59
37848;BME280;23688;33.130;-117.188;2022-12-17T14:21:55;99700.66;;;6.10;43.15
37848;BME280;23688;33.130;-117.188;2022-12-17T14:24:24;99710.94;;;6.10;42.73
37848;BME280;23688;33.130;-117.188;2022-12-17T14:26:59;99716.47;;;6.16;41.96
37848;BME280;23688;33.130;-117.188;2022-12-17T14:29:28;99695.28;;;6.07;42.57
37848;BME280;23688;33.130;-117.188;2022-12-17T14:31:57;99706.72;;;6.25;41.16
37848;BME280;23688;33.130;-117.188;2022-12-17T14:34:24;99707.31;;;6.34;41.26
37848;BME280;23688;33.130;-117.188;2022-12-17T14:36:57;99709.34;;;6.40;40.53
37848;BME280;23688;33.130;-117.188;2022-12-17T14:39:31;99714.63;;;6.41;40.89
37848;BME280;23688;33.130;-117.188;2022-12-17T14:42:07;99702.69;;;6.43;40.38
37848;BME280;23688;33.130;-117.188;2022-12-17T14:47:31;99705.22;;;6.57;40.52
37848;BME280;23688;33.130;-117.188;2022-12-17T14:52:45;99721.28;;;6.66;41.89
37848;BME280;23688;33.130;-117.188;2022-12-17T15:00:40;99731.75;;;6.69;40.37
37848;BME280;23688;33.130;-117.188;2022-12-17T15:03:18;99729.06;;;6.68;40.58
37848;BME280;23688;33.130;-117.188;2022-12-17T15:05:49;99710.75;;;6.63;39.47
37848;BME280;23688;33.130;-117.188;2022-12-17T15:08:16;99739.06;;;6.76;40.13
37848;BME280;23688;33.130;-117.188;2022-12-17T15:10:43;99740.78;;;6.76;40.32
37848;BME280;23688;33.130;-117.188;2022-12-17T15:13:09;99724.13;;;6.71;40.64
37848;BME280;23688;33.130;-117.188;2022-12-17T15:15:35;99745.03;;;6.75;41.24
37848;BME280;23688;33.130;-117.188;2022-12-17T15:18:01;99749.00;;;6.70;44.32
37848;BME280;23688;33.130;-117.188;2022-12-17T15:20:28;99741.06;;;6.52;45.21
37848;BME280;23688;33.130;-117.188;2022-12-17T15:22:54;99746.34;;;6.40;46.11
37848;BME280;23688;33.130;-117.188;2022-12-17T15:25:20;99745.69;;;6.30;45.63
37848;BME280;23688;33.130;-117.188;2022-12-17T15:27:46;99746.69;;;6.18;46.69
37848;BME280;23688;33.130;-117.188;2022-12-17T15:30:14;99757.91;;;6.19;47.30
37848;BME280;23688;33.130;-117.188;2022-12-17T15:32:42;99746.03;;;6.08;47.49
37848;BME280;23688;33.130;-117.188;2022-12-17T15:35:10;99766.97;;;6.12;46.11
37848;BME280;23688;33.130;-117.188;2022-12-17T15:37:36;99757.34;;;6.10;46.79
37848;BME280;23688;33.130;-117.188;2022-12-17T15:40:04;99767.91;;;6.14;47.08
37848;BME280;23688;33.130;-117.188;2022-12-17T15:42:31;99762.00;;;6.15;47.46
37848;BME280;23688;33.130;-117.188;2022-12-17T15:45:15;99762.28;;;6.20;47.29